sensor_id;sensor_type;location;lat;lon;timestamp;P1;durP1;ratioP1;P2;durP2;ratioP2
31920;SDS011;66485;52.128;4.436;2023-02-28T00:00:08;1.42;;;0.63;;
31920;SDS011;66485;52.128;4.436;2023-02-28T00:02:36;0.82;;;0.50;;
31920;SDS011;66485;52.128;4.436;2023-02-28T00:05:02;1.10;;;0.60;;
31920;SDS011;66485;52.128;4.436;2023-02-28T00:07:29;1.13;;;0.50;;
31920;SDS011;66485;52.128;4.436;2023-02-28T00:09:55;0.90;;;0.60;;
31920;SDS011;66485;52.128;4.436;2023-02-28T00:12:20;1.17;;;0.50;;
31920;SDS011;66485;52.128;4.436;2023-02-28T00:14:46;0.95;;;0.55;;
31920;SDS011;66485;52.128;4.436;2023-02-28T00:17:11;0.90;;;0.52;;
31920;SDS011;66485;52.128;4.436;2023-02-28T00:19:36;0.95;;;0.55;;
31920;SDS011;66485;52.128;4.436;2023-02-28T00:22:02;1.95;;;0.60;;
31920;SDS011;66485;52.128;4.436;2023-02-28T00:24:27;1.48;;;0.70;;
31920;SDS011;66485;52.128;4.436;2023-02-28T00:26:52;1.50;;;0.70;;
31920;SDS011;66485;52.128;4.436;2023-02-28T00:29:18;1.63;;;0.60;;
31920;SDS011;66485;52.128;4.436;2023-02-28T00:31:43;2.07;;;0.73;;
31920;SDS011;66485;52.128;4.436;2023-02-28T00:34:08;1.52;;;0.60;;
31920;SDS011;66485;52.128;4.436;2023-02-28T00:36:33;1.00;;;0.60;;
31920;SDS011;66485;52.128;4.436;2023-02-28T00:38:59;1.02;;;0.63;;
31920;SDS011;66485;52.128;4.436;2023-02-28T00:41:24;1.63;;;0.70;;
31920;SDS011;66485;52.128;4.436;2023-02-28T00:43:49;1.25;;;0.68;;
31920;SDS011;66485;52.128;4.436;2023-02-28T00:46:15;0.80;;;0.60;;
31920;SDS011;66485;52.128;4.436;2023-02-28T00:48:40;2.17;;;0.80;;
31920;SDS011;66485;52.128;4.436;2023-02-28T00:51:06;0.68;;;0.47;;
31920;SDS011;66485;52.128;4.436;2023-02-28T00:53:31;1.80;;;0.60;;
31920;SDS011;66485;52.128;4.436;2023-02-28T00:55:57;1.35;;;0.70;;
31920;SDS011;66485;52.128;4.436;2023-02-28T00:58:23;1.13;;;0.50;;
31920;SDS011;66485;52.128;4.436;2023-02-28T01:00:48;1.27;;;0.60;;
31920;SDS011;66485;52.128;4.436;2023-02-28T01:03:15;0.88;;;0.50;;
31920;SDS011;66485;52.128;4.436;2023-02-28T01:05:41;1.60;;;0.63;;
31920;SDS011;66485;52.128;4.436;2023-02-28T01:08:06;0.82;;;0.50;;
31920;SDS011;66485;52.128;4.436;2023-02-28T01:10:32;0.88;;;0.52;;
31920;SDS011;66485;52.128;4.436;2023-02-28T01:12:57;1.48;;;0.60;;
31920;SDS011;66485;52.128;4.436;2023-02-28T01:15:23;1.55;;;0.70;;
31920;SDS011;66485;52.128;4.436;2023-02-28T01:17:48;1.10;;;0.60;;
31920;SDS011;66485;52.128;4.436;2023-02-28T01:20:13;1.60;;;0.60;;
31920;SDS011;66485;52.128;4.436;2023-02-28T01:22:39;0.85;;;0.55;;
31920;SDS011;66485;52.128;4.436;2023-02-28T01:25:05;1.40;;;0.70;;
31920;SDS011;66485;52.128;4.436;2023-02-28T01:27:30;0.93;;;0.60;;
31920;SDS011;66485;52.128;4.436;2023-02-28T01:29:55;1.60;;;0.52;;
31920;SDS011;66485;52.128;4.436;2023-02-28T01:32:21;1.50;;;0.68;;
31920;SDS011;66485;52.128;4.436;2023-02-28T01:34:46;2.05;;;0.60;;
31920;SDS011;66485;52.128;4.436;2023-02-28T01:37:11;1.58;;;0.75;;
31920;SDS011;66485;52.128;4.436;2023-02-28T01:39:37;1.35;;;0.70;;
31920;SDS011;66485;52.128;4.436;2023-02-28T01:42:02;0.98;;;0.50;;
31920;SDS011;66485;52.128;4.436;2023-02-28T01:47:36;1.13;;;0.60;;
31920;SDS011;66485;52.128;4.436;2023-02-28T01:50:06;1.30;;;0.68;;
31920;SDS011;66485;52.128;4.436;2023-02-28T01:52:34;0.98;;;0.60;;
31920;SDS011;66485;52.128;4.436;2023-02-28T01:55:01;1.52;;;0.60;;
31920;SDS011;66485;52.128;4.436;2023-02-28T01:57:30;1.70;;;0.80;;
31920;SDS011;66485;52.128;4.436;2023-02-28T02:00:06;1.27;;;0.60;;
31920;SDS011;66485;52.128;4.436;2023-02-28T02:02:52;1.77;;;0.60;;
31920;SDS011;66485;52.128;4.436;2023-02-28T02:05:21;1.25;;;0.68;;
31920;SDS011;66485;52.128;4.436;2023-02-28T02:07:50;3.22;;;0.60;;
31920;SDS011;66485;52.128;4.436;2023-02-28T02:13:08;0.60;;;0.50;;
31920;SDS011;66485;52.128;4.436;2023-02-28T02:19:02;0.98;;;0.60;;
31920;SDS011;66485;52.128;4.436;2023-02-28T02:32:10;0.68;;;0.57;;
31920;SDS011;66485;52.128;4.436;2023-02-28T02:34:45;0.77;;;0.50;;
31920;SDS011;66485;52.128;4.436;2023-02-28T02:42:50;1.63;;;0.65;;
31920;SDS011;66485;52.128;4.436;2023-02-28T02:47:47;1.50;;;0.70;;
31920;SDS011;66485;52.128;4.436;2023-02-28T02:50:17;1.42;;;0.70;;
31920;SDS011;66485;52.128;4.436;2023-02-28T02:52:49;0.65;;;0.50;;
31920;SDS011;66485;52.128;4.436;2023-02-28T02:55:17;1.40;;;0.70;;
31920;SDS011;66485;52.128;4.436;2023-02-28T02:57:48;1.55;;;0.60;;
31920;SDS011;66485;52.128;4.436;2023-02-28T03:00:18;0.98;;;0.52;;
31920;SDS011;66485;52.128;4.436;2023-02-28T03:02:50;0.95;;;0.50;;
31920;SDS011;66485;52.128;4.436;2023-02-28T03:05:19;1.33;;;0.63;;
31920;SDS011;66485;52.128;4.436;2023-02-28T03:07:48;0.90;;;0.60;;
31920;SDS011;66485;52.128;4.436;2023-02-28T03:10:30;1.23;;;0.50;;
31920;SDS011;66485;52.128;4.436;2023-02-28T03:24:45;0.45;;;0.40;;
31920;SDS011;66485;52.128;4.436;2023-02-28T03:27:29;1.75;;;0.70;;
31920;SDS011;66485;52.128;4.436;2023-02-28T03:30:00;2.90;;;0.90;;
31920;SDS011;66485;52.128;4.436;2023-02-28T03:32:33;1.02;;;0.50;;
31920;SDS011;66485;52.128;4.436;2023-02-28T03:37:40;1.35;;;0.60;;
31920;SDS011;66485;52.128;4.436;2023-02-28T03:40:14;1.25;;;0.60;;
31920;SDS011;66485;52.128;4.436;2023-02-28T03:42:44;2.42;;;0.60;;
31920;SDS011;66485;52.128;4.436;2023-02-28T03:45:14;1.10;;;0.52;;
31920;SDS011;66485;52.128;4.436;2023-02-28T03:47:49;1.63;;;0.60;;
31920;SDS011;66485;52.128;4.436;2023-02-28T03:52:54;1.33;;;0.60;;
31920;SDS011;66485;52.128;4.436;2023-02-28T03:55:26;1.58;;;0.70;;
31920;SDS011;66485;52.128;4.436;2023-02-28T04:00:49;1.10;;;0.50;;
31920;SDS011;66485;52.128;4.436;2023-02-28T04:03:22;1.35;;;0.50;;
31920;SDS011;66485;52.128;4.436;2023-02-28T04:05:52;0.98;;;0.50;;
31920;SDS011;66485;52.128;4.436;2023-02-28T04:08:20;0.50;;;0.38;;
31920;SDS011;66485;52.128;4.436;2023-02-28T04:10:48;1.10;;;0.50;;
31920;SDS011;66485;52.128;4.436;2023-02-28T04:13:18;0.98;;;0.52;;
31920;SDS011;66485;52.128;4.436;2023-02-28T04:15:44;1.38;;;0.70;;
31920;SDS011;66485;52.128;4.436;2023-02-28T04:18:09;0.77;;;0.43;;
31920;SDS011;66485;52.128;4.436;2023-02-28T04:20:34;0.70;;;0.60;;
31920;SDS011;66485;52.128;4.436;2023-02-28T04:23:00;1.33;;;0.80;;
31920;SDS011;66485;52.128;4.436;2023-02-28T04:25:25;1.25;;;0.52;;
31920;SDS011;66485;52.128;4.436;2023-02-28T04:27:50;1.27;;;0.70;;
31920;SDS011;66485;52.128;4.436;2023-02-28T04:30:15;2.35;;;0.60;;
31920;SDS011;66485;52.128;4.436;2023-02-28T04:32:41;1.65;;;0.60;;
31920;SDS011;66485;52.128;4.436;2023-02-28T04:35:06;0.93;;;0.50;;
31920;SDS011;66485;52.128;4.436;2023-02-28T04:37:32;1.25;;;0.80;;
31920;SDS011;66485;52.128;4.436;2023-02-28T04:40:00;2.00;;;0.50;;
31920;SDS011;66485;52.128;4.436;2023-02-28T04:42:25;1.27;;;0.60;;
31920;SDS011;66485;52.128;4.436;2023-02-28T04:44:51;1.15;;;0.50;;
31920;SDS011;66485;52.128;4.436;2023-02-28T04:47:16;1.52;;;0.57;;
31920;SDS011;66485;52.128;4.436;2023-02-28T04:49:42;1.13;;;0.60;;
31920;SDS011;66485;52.128;4.436;2023-02-28T04:52:07;1.40;;;0.50;;
31920;SDS011;66485;52.128;4.436;2023-02-28T04:54:34;0.98;;;0.50;;
31920;SDS011;66485;52.128;4.436;2023-02-28T04:57:00;2.05;;;0.68;;
31920;SDS011;66485;52.128;4.436;2023-02-28T04:59:26;0.98;;;0.50;;
31920;SDS011;66485;52.128;4.436;2023-02-28T05:01:52;2.10;;;0.82;;
31920;SDS011;66485;52.128;4.436;2023-02-28T05:04:17;1.00;;;0.63;;
31920;SDS011;66485;52.128;4.436;2023-02-28T05:06:43;1.20;;;0.45;;
31920;SDS011;66485;52.128;4.436;2023-02-28T05:09:09;0.93;;;0.60;;
31920;SDS011;66485;52.128;4.436;2023-02-28T05:11:36;0.77;;;0.50;;
31920;SDS011;66485;52.128;4.436;2023-02-28T05:14:04;1.27;;;0.52;;
31920;SDS011;66485;52.128;4.436;2023-02-28T05:16:32;0.70;;;0.50;;
31920;SDS011;66485;52.128;4.436;2023-02-28T05:18:57;0.73;;;0.50;;
31920;SDS011;66485;52.128;4.436;2023-02-28T05:21:24;1.00;;;0.50;;
31920;SDS011;66485;52.128;4.436;2023-02-28T05:23:50;2.28;;;0.55;;
31920;SDS011;66485;52.128;4.436;2023-02-28T05:26:16;1.45;;;0.50;;
31920;SDS011;66485;52.128;4.436;2023-02-28T05:28:41;0.80;;;0.50;;
31920;SDS011;66485;52.128;4.436;2023-02-28T05:31:07;2.05;;;0.63;;
31920;SDS011;66485;52.128;4.436;2023-02-28T05:33:35;3.50;;;1.20;;
31920;SDS011;66485;52.128;4.436;2023-02-28T05:36:01;0.75;;;0.50;;
31920;SDS011;66485;52.128;4.436;2023-02-28T05:38:26;1.17;;;0.60;;
31920;SDS011;66485;52.128;4.436;2023-02-28T05:40:51;0.82;;;0.50;;
31920;SDS011;66485;52.128;4.436;2023-02-28T05:43:18;1.20;;;0.52;;
31920;SDS011;66485;52.128;4.436;2023-02-28T05:45:43;1.55;;;0.60;;
31920;SDS011;66485;52.128;4.436;2023-02-28T05:48:10;0.80;;;0.60;;
31920;SDS011;66485;52.128;4.436;2023-02-28T05:50:35;1.80;;;0.57;;
31920;SDS011;66485;52.128;4.436;2023-02-28T05:53:01;1.30;;;0.50;;
31920;SDS011;66485;52.128;4.436;2023-02-28T05:55:26;1.33;;;0.60;;
31920;SDS011;66485;52.128;4.436;2023-02-28T05:57:52;1.10;;;0.60;;
31920;SDS011;66485;52.128;4.436;2023-02-28T06:00:17;0.95;;;0.50;;
31920;SDS011;66485;52.128;4.436;2023-02-28T06:02:43;1.60;;;0.63;;
31920;SDS011;66485;52.128;4.436;2023-02-28T06:05:15;1.10;;;0.60;;
31920;SDS011;66485;52.128;4.436;2023-02-28T06:07:41;1.20;;;0.70;;
31920;SDS011;66485;52.128;4.436;2023-02-28T06:10:08;0.35;;;0.35;;
31920;SDS011;66485;52.128;4.436;2023-02-28T06:12:34;1.08;;;0.60;;
31920;SDS011;66485;52.128;4.436;2023-02-28T06:14:59;2.03;;;0.70;;
31920;SDS011;66485;52.128;4.436;2023-02-28T06:17:25;1.38;;;0.70;;
31920;SDS011;66485;52.128;4.436;2023-02-28T06:19:50;1.17;;;0.70;;
31920;SDS011;66485;52.128;4.436;2023-02-28T06:22:15;1.63;;;0.70;;
31920;SDS011;66485;52.128;4.436;2023-02-28T06:24:41;1.08;;;0.60;;
31920;SDS011;66485;52.128;4.436;2023-02-28T06:27:06;1.40;;;0.53;;
31920;SDS011;66485;52.128;4.436;2023-02-28T06:29:32;0.93;;;0.43;;
31920;SDS011;66485;52.128;4.436;2023-02-28T06:31:58;1.02;;;0.50;;
31920;SDS011;66485;52.128;4.436;2023-02-28T06:34:23;1.70;;;0.50;;
31920;SDS011;66485;52.128;4.436;2023-02-28T06:36:50;1.10;;;0.50;;
31920;SDS011;66485;52.128;4.436;2023-02-28T06:39:17;1.33;;;0.60;;
31920;SDS011;66485;52.128;4.436;2023-02-28T06:41:42;1.65;;;0.60;;
31920;SDS011;66485;52.128;4.436;2023-02-28T06:44:11;1.75;;;0.77;;
31920;SDS011;66485;52.128;4.436;2023-02-28T06:46:38;1.17;;;0.65;;
31920;SDS011;66485;52.128;4.436;2023-02-28T06:49:06;1.70;;;0.77;;
31920;SDS011;66485;52.128;4.436;2023-02-28T06:51:33;1.58;;;0.55;;
31920;SDS011;66485;52.128;4.436;2023-02-28T06:53:59;0.90;;;0.50;;
31920;SDS011;66485;52.128;4.436;2023-02-28T06:56:24;0.95;;;0.45;;
31920;SDS011;66485;52.128;4.436;2023-02-28T06:58:50;2.47;;;0.60;;
31920;SDS011;66485;52.128;4.436;2023-02-28T07:01:17;1.17;;;0.60;;
31920;SDS011;66485;52.128;4.436;2023-02-28T07:03:43;1.05;;;0.50;;
31920;SDS011;66485;52.128;4.436;2023-02-28T07:06:09;2.03;;;0.68;;
31920;SDS011;66485;52.128;4.436;2023-02-28T07:08:34;0.90;;;0.50;;
31920;SDS011;66485;52.128;4.436;2023-02-28T07:11:01;1.90;;;0.85;;
31920;SDS011;66485;52.128;4.436;2023-02-28T07:13:27;1.02;;;0.57;;
31920;SDS011;66485;52.128;4.436;2023-02-28T07:15:55;1.20;;;0.45;;
31920;SDS011;66485;52.128;4.436;2023-02-28T07:18:22;0.73;;;0.40;;
31920;SDS011;66485;52.128;4.436;2023-02-28T07:20:48;0.73;;;0.50;;
31920;SDS011;66485;52.128;4.436;2023-02-28T07:23:13;0.90;;;0.47;;
31920;SDS011;66485;52.128;4.436;2023-02-28T07:25:38;1.13;;;0.50;;
31920;SDS011;66485;52.128;4.436;2023-02-28T07:28:04;1.15;;;0.57;;
31920;SDS011;66485;52.128;4.436;2023-02-28T07:30:29;2.20;;;0.40;;
31920;SDS011;66485;52.128;4.436;2023-02-28T07:32:54;0.93;;;0.55;;
31920;SDS011;66485;52.128;4.436;2023-02-28T07:35:21;0.80;;;0.47;;
31920;SDS011;66485;52.128;4.436;2023-02-28T07:37:47;0.55;;;0.40;;
31920;SDS011;66485;52.128;4.436;2023-02-28T07:40:12;0.73;;;0.50;;
31920;SDS011;66485;52.128;4.436;2023-02-28T07:42:39;0.68;;;0.50;;
31920;SDS011;66485;52.128;4.436;2023-02-28T07:45:06;1.38;;;0.60;;
31920;SDS011;66485;52.128;4.436;2023-02-28T07:47:32;1.13;;;0.60;;
31920;SDS011;66485;52.128;4.436;2023-02-28T07:49:57;0.68;;;0.45;;
31920;SDS011;66485;52.128;4.436;2023-02-28T07:52:23;0.60;;;0.50;;
31920;SDS011;66485;52.128;4.436;2023-02-28T07:54:52;1.08;;;0.52;;
31920;SDS011;66485;52.128;4.436;2023-02-28T07:57:17;1.50;;;0.63;;
31920;SDS011;66485;52.128;4.436;2023-02-28T07:59:43;2.47;;;0.80;;
31920;SDS011;66485;52.128;4.436;2023-02-28T08:02:11;1.63;;;0.70;;
31920;SDS011;66485;52.128;4.436;2023-02-28T08:04:38;2.15;;;0.65;;
31920;SDS011;66485;52.128;4.436;2023-02-28T08:07:04;1.33;;;0.60;;
31920;SDS011;66485;52.128;4.436;2023-02-28T08:09:29;1.55;;;0.88;;
31920;SDS011;66485;52.128;4.436;2023-02-28T08:11:55;1.40;;;0.50;;
31920;SDS011;66485;52.128;4.436;2023-02-28T08:14:20;0.93;;;0.50;;
31920;SDS011;66485;52.128;4.436;2023-02-28T08:16:45;1.10;;;0.57;;
31920;SDS011;66485;52.128;4.436;2023-02-28T08:19:11;2.00;;;0.77;;
31920;SDS011;66485;52.128;4.436;2023-02-28T08:21:36;1.10;;;0.50;;
31920;SDS011;66485;52.128;4.436;2023-02-28T08:24:01;0.77;;;0.60;;
31920;SDS011;66485;52.128;4.436;2023-02-28T08:26:27;1.65;;;0.70;;
31920;SDS011;66485;52.128;4.436;2023-02-28T08:28:52;1.65;;;0.80;;
31920;SDS011;66485;52.128;4.436;2023-02-28T08:31:17;1.43;;;0.60;;
31920;SDS011;66485;52.128;4.436;2023-02-28T08:33:43;1.10;;;0.60;;
31920;SDS011;66485;52.128;4.436;2023-02-28T08:36:09;1.25;;;0.70;;
31920;SDS011;66485;52.128;4.436;2023-02-28T08:38:35;1.45;;;0.70;;
31920;SDS011;66485;52.128;4.436;2023-02-28T08:41:03;1.15;;;0.50;;
31920;SDS011;66485;52.128;4.436;2023-02-28T08:43:34;1.10;;;0.55;;
31920;SDS011;66485;52.128;4.436;2023-02-28T08:46:00;1.27;;;0.52;;
31920;SDS011;66485;52.128;4.436;2023-02-28T08:48:28;1.10;;;0.80;;
31920;SDS011;66485;52.128;4.436;2023-02-28T08:51:02;1.27;;;0.60;;
31920;SDS011;66485;52.128;4.436;2023-02-28T08:53:41;1.85;;;0.63;;
31920;SDS011;66485;52.128;4.436;2023-02-28T08:56:07;2.08;;;0.70;;
31920;SDS011;66485;52.128;4.436;2023-02-28T08:58:37;1.60;;;0.70;;
31920;SDS011;66485;52.128;4.436;2023-02-28T09:01:10;1.70;;;0.80;;
31920;SDS011;66485;52.128;4.436;2023-02-28T09:03:37;2.67;;;0.70;;
31920;SDS011;66485;52.128;4.436;2023-02-28T09:06:03;2.00;;;0.60;;
31920;SDS011;66485;52.128;4.436;2023-02-28T09:08:29;5.65;;;0.90;;
31920;SDS011;66485;52.128;4.436;2023-02-28T09:10:56;1.63;;;1.10;;
31920;SDS011;66485;52.128;4.436;2023-02-28T09:13:23;0.93;;;0.52;;
31920;SDS011;66485;52.128;4.436;2023-02-28T09:15:49;2.65;;;0.50;;
31920;SDS011;66485;52.128;4.436;2023-02-28T09:18:15;3.50;;;0.70;;
31920;SDS011;66485;52.128;4.436;2023-02-28T09:20:41;5.85;;;0.70;;
31920;SDS011;66485;52.128;4.436;2023-02-28T09:23:08;1.95;;;0.80;;
31920;SDS011;66485;52.128;4.436;2023-02-28T09:25:34;9.00;;;0.90;;
31920;SDS011;66485;52.128;4.436;2023-02-28T09:28:00;2.70;;;0.60;;
31920;SDS011;66485;52.128;4.436;2023-02-28T09:30:25;7.15;;;0.80;;
31920;SDS011;66485;52.128;4.436;2023-02-28T09:32:52;1.95;;;0.70;;
31920;SDS011;66485;52.128;4.436;2023-02-28T09:35:19;1.27;;;0.63;;
31920;SDS011;66485;52.128;4.436;2023-02-28T09:37:51;2.40;;;0.85;;
31920;SDS011;66485;52.128;4.436;2023-02-28T09:40:18;1.27;;;0.60;;
31920;SDS011;66485;52.128;4.436;2023-02-28T09:42:46;1.42;;;0.70;;
31920;SDS011;66485;52.128;4.436;2023-02-28T09:47:48;1.15;;;0.65;;
31920;SDS011;66485;52.128;4.436;2023-02-28T09:52:51;1.65;;;0.82;;
31920;SDS011;66485;52.128;4.436;2023-02-28T09:57:52;7.63;;;0.73;;
31920;SDS011;66485;52.128;4.436;2023-02-28T10:00:23;3.22;;;0.80;;
31920;SDS011;66485;52.128;4.436;2023-02-28T10:03:15;1.60;;;0.70;;
31920;SDS011;66485;52.128;4.436;2023-02-28T10:05:59;1.95;;;0.80;;
31920;SDS011;66485;52.128;4.436;2023-02-28T10:11:08;1.35;;;0.60;;
31920;SDS011;66485;52.128;4.436;2023-02-28T10:13:40;2.90;;;0.70;;
31920;SDS011;66485;52.128;4.436;2023-02-28T10:16:37;4.32;;;0.70;;
31920;SDS011;66485;52.128;4.436;2023-02-28T10:21:46;2.85;;;0.80;;
31920;SDS011;66485;52.128;4.436;2023-02-28T10:24:58;2.92;;;0.70;;
31920;SDS011;66485;52.128;4.436;2023-02-28T10:27:12;4.57;;;0.82;;
31920;SDS011;66485;52.128;4.436;2023-02-28T10:29:49;4.35;;;0.60;;
31920;SDS011;66485;52.128;4.436;2023-02-28T10:37:39;1.40;;;0.75;;
31920;SDS011;66485;52.128;4.436;2023-02-28T10:40:24;2.72;;;0.90;;
31920;SDS011;66485;52.128;4.436;2023-02-28T10:43:03;2.78;;;0.50;;
31920;SDS011;66485;52.128;4.436;2023-02-28T10:45:34;4.05;;;0.63;;
31920;SDS011;66485;52.128;4.436;2023-02-28T10:50:43;1.13;;;0.60;;
31920;SDS011;66485;52.128;4.436;2023-02-28T10:58:24;2.88;;;1.00;;
31920;SDS011;66485;52.128;4.436;2023-02-28T11:00:52;3.27;;;1.20;;
31920;SDS011;66485;52.128;4.436;2023-02-28T11:03:34;3.42;;;0.70;;
31920;SDS011;66485;52.128;4.436;2023-02-28T11:06:07;2.65;;;0.60;;
31920;SDS011;66485;52.128;4.436;2023-02-28T11:08:45;1.33;;;0.63;;
31920;SDS011;66485;52.128;4.436;2023-02-28T11:11:17;3.92;;;0.90;;
31920;SDS011;66485;52.128;4.436;2023-02-28T11:13:44;1.08;;;0.70;;
31920;SDS011;66485;52.128;4.436;2023-02-28T11:16:12;1.23;;;0.73;;
31920;SDS011;66485;52.128;4.436;2023-02-28T11:21:27;2.30;;;0.73;;
31920;SDS011;66485;52.128;4.436;2023-02-28T11:23:59;0.77;;;0.57;;
31920;SDS011;66485;52.128;4.436;2023-02-28T11:26:36;2.00;;;0.90;;
31920;SDS011;66485;52.128;4.436;2023-02-28T11:29:08;1.65;;;0.60;;
31920;SDS011;66485;52.128;4.436;2023-02-28T11:31:36;3.55;;;0.73;;
31920;SDS011;66485;52.128;4.436;2023-02-28T11:34:07;2.70;;;0.70;;
31920;SDS011;66485;52.128;4.436;2023-02-28T11:36:48;0.90;;;0.60;;
31920;SDS011;66485;52.128;4.436;2023-02-28T11:39:14;1.88;;;0.75;;
31920;SDS011;66485;52.128;4.436;2023-02-28T11:47:54;1.92;;;0.60;;
31920;SDS011;66485;52.128;4.436;2023-02-28T11:55:44;1.25;;;0.60;;
31920;SDS011;66485;52.128;4.436;2023-02-28T11:58:33;0.98;;;0.60;;
31920;SDS011;66485;52.128;4.436;2023-02-28T12:01:21;1.77;;;0.70;;
31920;SDS011;66485;52.128;4.436;2023-02-28T12:06:54;1.60;;;0.70;;
31920;SDS011;66485;52.128;4.436;2023-02-28T12:11:57;2.17;;;0.60;;
31920;SDS011;66485;52.128;4.436;2023-02-28T12:22:50;1.77;;;0.68;;
31920;SDS011;66485;52.128;4.436;2023-02-28T12:25:34;2.97;;;0.85;;
31920;SDS011;66485;52.128;4.436;2023-02-28T12:28:03;2.27;;;0.70;;
31920;SDS011;66485;52.128;4.436;2023-02-28T12:30:30;0.98;;;0.60;;
31920;SDS011;66485;52.128;4.436;2023-02-28T12:33:01;0.63;;;0.57;;
31920;SDS011;66485;52.128;4.436;2023-02-28T12:35:34;2.03;;;0.93;;
31920;SDS011;66485;52.128;4.436;2023-02-28T12:41:04;1.10;;;0.55;;
31920;SDS011;66485;52.128;4.436;2023-02-28T12:43:33;3.22;;;0.70;;
31920;SDS011;66485;52.128;4.436;2023-02-28T12:46:06;1.52;;;0.50;;
31920;SDS011;66485;52.128;4.436;2023-02-28T12:48:39;1.90;;;0.80;;
31920;SDS011;66485;52.128;4.436;2023-02-28T12:51:08;0.73;;;0.52;;
31920;SDS011;66485;52.128;4.436;2023-02-28T12:54:10;1.45;;;0.50;;
31920;SDS011;66485;52.128;4.436;2023-02-28T13:10:11;0.82;;;0.60;;
31920;SDS011;66485;52.128;4.436;2023-02-28T13:12:42;2.15;;;0.80;;
31920;SDS011;66485;52.128;4.436;2023-02-28T13:15:18;6.80;;;0.85;;
31920;SDS011;66485;52.128;4.436;2023-02-28T13:17:49;2.30;;;0.77;;
31920;SDS011;66485;52.128;4.436;2023-02-28T13:20:17;2.85;;;0.93;;
31920;SDS011;66485;52.128;4.436;2023-02-28T13:22:46;4.15;;;1.10;;
31920;SDS011;66485;52.128;4.436;2023-02-28T13:27:56;2.88;;;1.40;;
31920;SDS011;66485;52.128;4.436;2023-02-28T13:39:00;5.90;;;1.17;;
31920;SDS011;66485;52.128;4.436;2023-02-28T13:41:48;2.40;;;0.90;;
31920;SDS011;66485;52.128;4.436;2023-02-28T14:05:15;4.97;;;1.15;;
31920;SDS011;66485;52.128;4.436;2023-02-28T14:07:50;5.65;;;1.25;;
31920;SDS011;66485;52.128;4.436;2023-02-28T14:12:52;6.47;;;1.70;;
31920;SDS011;66485;52.128;4.436;2023-02-28T14:15:27;6.38;;;1.80;;
31920;SDS011;66485;52.128;4.436;2023-02-28T14:17:55;10.07;;;2.20;;
31920;SDS011;66485;52.128;4.436;2023-02-28T14:20:22;12.52;;;3.67;;
31920;SDS011;66485;52.128;4.436;2023-02-28T14:23:34;14.63;;;4.75;;
31920;SDS011;66485;52.128;4.436;2023-02-28T14:25:54;22.90;;;8.45;;
31920;SDS011;66485;52.128;4.436;2023-02-28T14:31:35;39.90;;;14.18;;
31920;SDS011;66485;52.128;4.436;2023-02-28T14:36:45;45.50;;;17.15;;
31920;SDS011;66485;52.128;4.436;2023-02-28T14:39:13;41.22;;;14.95;;
31920;SDS011;66485;52.128;4.436;2023-02-28T14:41:41;47.38;;;18.27;;
31920;SDS011;66485;52.128;4.436;2023-02-28T14:49:25;48.92;;;17.10;;
31920;SDS011;66485;52.128;4.436;2023-02-28T14:54:41;49.08;;;16.95;;
31920;SDS011;66485;52.128;4.436;2023-02-28T14:57:24;47.03;;;18.00;;
31920;SDS011;66485;52.128;4.436;2023-02-28T15:02:25;57.70;;;18.23;;
31920;SDS011;66485;52.128;4.436;2023-02-28T15:04:55;50.83;;;17.95;;
31920;SDS011;66485;52.128;4.436;2023-02-28T15:07:26;47.30;;;17.70;;
31920;SDS011;66485;52.128;4.436;2023-02-28T15:10:08;48.33;;;18.70;;
31920;SDS011;66485;52.128;4.436;2023-02-28T15:12:40;48.80;;;19.48;;
31920;SDS011;66485;52.128;4.436;2023-02-28T15:15:15;52.72;;;20.02;;
31920;SDS011;66485;52.128;4.436;2023-02-28T15:17:42;57.20;;;20.95;;
31920;SDS011;66485;52.128;4.436;2023-02-28T15:20:11;56.05;;;20.67;;
31920;SDS011;66485;52.128;4.436;2023-02-28T15:22:38;58.85;;;20.65;;
31920;SDS011;66485;52.128;4.436;2023-02-28T15:25:04;53.38;;;20.50;;
31920;SDS011;66485;52.128;4.436;2023-02-28T15:27:33;50.42;;;20.13;;
31920;SDS011;66485;52.128;4.436;2023-02-28T15:30:13;51.38;;;20.88;;
31920;SDS011;66485;52.128;4.436;2023-02-28T15:32:41;63.00;;;21.77;;
31920;SDS011;66485;52.128;4.436;2023-02-28T15:37:55;56.53;;;21.67;;
31920;SDS011;66485;52.128;4.436;2023-02-28T15:40:25;53.22;;;20.42;;
31920;SDS011;66485;52.128;4.436;2023-02-28T15:45:37;57.58;;;20.55;;
31920;SDS011;66485;52.128;4.436;2023-02-28T15:48:12;58.80;;;21.63;;
31920;SDS011;66485;52.128;4.436;2023-02-28T15:50:40;58.97;;;20.55;;
31920;SDS011;66485;52.128;4.436;2023-02-28T15:53:10;50.92;;;20.35;;
31920;SDS011;66485;52.128;4.436;2023-02-28T15:55:45;54.20;;;19.50;;
31920;SDS011;66485;52.128;4.436;2023-02-28T15:58:18;51.70;;;18.92;;
31920;SDS011;66485;52.128;4.436;2023-02-28T16:00:45;51.60;;;18.73;;
31920;SDS011;66485;52.128;4.436;2023-02-28T16:03:26;48.45;;;18.75;;
31920;SDS011;66485;52.128;4.436;2023-02-28T16:08:55;43.10;;;17.42;;
31920;SDS011;66485;52.128;4.436;2023-02-28T16:11:21;44.33;;;17.00;;
31920;SDS011;66485;52.128;4.436;2023-02-28T16:13:47;48.83;;;17.90;;
31920;SDS011;66485;52.128;4.436;2023-02-28T16:16:17;51.38;;;16.92;;
31920;SDS011;66485;52.128;4.436;2023-02-28T16:18:44;48.58;;;16.70;;
31920;SDS011;66485;52.128;4.436;2023-02-28T16:21:09;46.95;;;17.33;;
31920;SDS011;66485;52.128;4.436;2023-02-28T16:23:34;42.57;;;16.30;;
31920;SDS011;66485;52.128;4.436;2023-02-28T16:25:59;40.72;;;16.00;;
31920;SDS011;66485;52.128;4.436;2023-02-28T16:28:27;41.10;;;15.93;;
31920;SDS011;66485;52.128;4.436;2023-02-28T16:30:59;41.72;;;15.32;;
31920;SDS011;66485;52.128;4.436;2023-02-28T16:33:27;38.55;;;14.93;;
31920;SDS011;66485;52.128;4.436;2023-02-28T16:35:52;36.80;;;14.75;;
31920;SDS011;66485;52.128;4.436;2023-02-28T16:38:18;36.90;;;14.68;;
31920;SDS011;66485;52.128;4.436;2023-02-28T16:40:43;35.17;;;14.55;;
31920;SDS011;66485;52.128;4.436;2023-02-28T16:43:16;42.17;;;14.93;;
31920;SDS011;66485;52.128;4.436;2023-02-28T16:45:44;37.58;;;14.18;;
31920;SDS011;66485;52.128;4.436;2023-02-28T16:48:15;33.55;;;13.10;;
31920;SDS011;66485;52.128;4.436;2023-02-28T16:53:07;36.95;;;14.27;;
31920;SDS011;66485;52.128;4.436;2023-02-28T16:55:32;34.90;;;12.88;;
31920;SDS011;66485;52.128;4.436;2023-02-28T16:58:00;33.13;;;12.57;;
31920;SDS011;66485;52.128;4.436;2023-02-28T17:00:27;29.42;;;12.43;;
31920;SDS011;66485;52.128;4.436;2023-02-28T17:02:53;34.80;;;13.23;;
31920;SDS011;66485;52.128;4.436;2023-02-28T17:05:19;37.40;;;12.25;;
31920;SDS011;66485;52.128;4.436;2023-02-28T17:07:46;30.70;;;12.23;;
31920;SDS011;66485;52.128;4.436;2023-02-28T17:10:20;31.23;;;11.60;;
31920;SDS011;66485;52.128;4.436;2023-02-28T17:12:47;27.75;;;11.60;;
31920;SDS011;66485;52.128;4.436;2023-02-28T17:15:13;32.38;;;12.27;;
31920;SDS011;66485;52.128;4.436;2023-02-28T17:17:40;32.65;;;12.45;;
31920;SDS011;66485;52.128;4.436;2023-02-28T17:20:07;31.10;;;11.52;;
31920;SDS011;66485;52.128;4.436;2023-02-28T17:22:37;28.17;;;11.45;;
31920;SDS011;66485;52.128;4.436;2023-02-28T17:25:02;26.33;;;10.07;;
31920;SDS011;66485;52.128;4.436;2023-02-28T17:27:27;28.60;;;10.50;;
31920;SDS011;66485;52.128;4.436;2023-02-28T17:29:53;28.17;;;11.77;;
31920;SDS011;66485;52.128;4.436;2023-02-28T17:32:18;22.73;;;9.80;;
31920;SDS011;66485;52.128;4.436;2023-02-28T17:34:44;26.00;;;10.02;;
31920;SDS011;66485;52.128;4.436;2023-02-28T17:37:10;25.85;;;10.05;;
31920;SDS011;66485;52.128;4.436;2023-02-28T17:39:36;23.98;;;10.05;;
31920;SDS011;66485;52.128;4.436;2023-02-28T17:42:01;25.63;;;10.43;;
31920;SDS011;66485;52.128;4.436;2023-02-28T17:44:27;26.13;;;10.07;;
31920;SDS011;66485;52.128;4.436;2023-02-28T17:46:53;27.15;;;9.93;;
31920;SDS011;66485;52.128;4.436;2023-02-28T17:49:19;19.52;;;8.48;;
31920;SDS011;66485;52.128;4.436;2023-02-28T17:51:45;20.35;;;8.32;;